Time;durP1;ratioP1;P1;durP2;ratioP2;P2;SDS_P1;SDS_P2;PMS_P1;PMS_P2;Temp;Humidity;BMP_temperature;BMP_pressure;BME280_temperature;BME280_humidity;BME280_pressure;Samples;Min_cycle;Max_cycle;Signal;HPM_P1;HPM_P2
2023/06/20 00:00:37;;;;;;;6.03;4.55;;;;;;;20.26;67.30;101213.28;4990029;28;20084;-90
2023/06/20 00:03:03;;;;;;;6.95;4.22;;;;;;;20.22;67.14;101203.97;4990593;28;20034;-90
2023/06/20 00:05:28;;;;;;;6.45;4.32;;;;;;;20.09;68.25;101188.34;4975140;28;20026;-89
2023/06/20 00:07:54;;;;;;;6.05;4.45;;;;;;;20.20;68.09;101203.25;4977060;28;20512;-90
2023/06/20 00:10:20;;;;;;;6.53;4.57;;;;;;;20.20;68.70;101203.25;4993593;28;20027;-88
2023/06/20 00:12:45;;;;;;;5.55;4.18;;;;;;;20.12;67.86;101189.91;4977435;28;20554;-90
2023/06/20 00:15:11;;;;;;;6.68;4.10;;;;;;;20.17;67.57;101217.47;4977112;28;20034;-90
2023/06/20 00:17:38;;;;;;;4.82;3.83;;;;;;;20.05;67.71;101181.66;4976943;28;20484;-91
2023/06/20 00:20:08;;;;;;;6.53;4.53;;;;;;;20.12;67.73;101214.38;4977062;28;20034;-89
2023/06/20 00:22:34;;;;;;;7.07;4.22;;;;;;;20.07;68.14;101216.53;4977547;28;20084;-91
2023/06/20 00:25:02;;;;;;;8.32;4.60;;;;;;;19.96;68.36;101198.16;4977154;28;20035;-90
2023/06/20 00:27:28;;;;;;;6.45;4.45;;;;;;;20.03;68.26;101215.09;4977399;28;20030;-90
2023/06/20 00:29:53;;;;;;;6.18;4.10;;;;;;;19.88;68.48;101203.19;4993245;28;20037;-89
2023/06/20 00:32:19;;;;;;;7.25;4.40;;;;;;;19.75;68.62;101196.25;4976387;28;20045;-88
2023/06/20 00:34:44;;;;;;;7.13;4.53;;;;;;;19.85;68.44;101216.53;4993011;28;20030;-90
2023/06/20 00:37:10;;;;;;;5.45;4.20;;;;;;;19.92;68.52;101217.75;4976875;28;20034;-90
2023/06/20 00:39:35;;;;;;;10.32;4.75;;;;;;;19.93;68.77;101211.53;4993282;28;20022;-90
2023/06/20 00:42:01;;;;;;;7.22;4.57;;;;;;;19.89;69.07;101212.75;5009232;28;20034;-90
2023/06/20 00:44:26;;;;;;;6.43;4.45;;;;;;;19.86;69.11;101220.84;4976840;28;20046;-89
2023/06/20 00:46:52;;;;;;;8.30;4.82;;;;;;;19.86;69.18;101218.22;4976319;28;20401;-90
2023/06/20 00:49:17;;;;;;;5.15;4.20;;;;;;;19.75;68.98;101204.13;4992584;28;20037;-91
2023/06/20 00:51:43;;;;;;;6.22;4.18;;;;;;;19.76;69.29;101213.72;4976657;28;20038;-90
2023/06/20 00:54:09;;;;;;;5.25;4.22;;;;;;;19.68;69.77;101210.84;4992722;28;20042;-89
2023/06/20 00:56:34;;;;;;;6.95;4.63;;;;;;;19.67;70.29;101213.59;4992719;28;20034;-90
2023/06/20 00:59:03;;;;;;;6.30;4.43;;;;;;;19.58;70.46;101199.38;4976599;28;20467;-90
2023/06/20 01:01:31;;;;;;;5.72;4.22;;;;;;;19.43;70.63;101196.09;4992645;28;20027;-89
2023/06/20 01:03:57;;;;;;;6.82;4.75;;;;;;;19.49;70.68;101221.06;4961029;28;20109;-89
2023/06/20 01:06:35;;;;;;;6.72;4.68;;;;;;;19.46;70.91;101221.28;4976400;28;20495;-90
2023/06/20 01:09:07;;;;;;;6.40;4.45;;;;;;;19.54;70.49;101224.16;4977791;28;20053;-89
2023/06/20 01:11:55;;;;;;;5.47;4.28;;;;;;;19.61;69.99;101225.38;4993729;28;20031;-91
2023/06/20 01:14:25;;;;;;;11.90;4.70;;;;;;;19.42;69.93;101191.81;4982663;28;20051;-90
2023/06/20 01:17:17;;;;;;;7.07;4.57;;;;;;;19.63;69.41;101222.63;4991153;28;20109;-88
2023/06/20 01:20:12;;;;;;;8.43;4.60;;;;;;;19.63;69.94;101220.84;4992223;28;20484;-89
2023/06/20 01:23:09;;;;;;;7.25;4.35;;;;;;;19.52;70.42;101210.31;4993596;28;20046;-90
2023/06/20 01:25:46;;;;;;;5.53;3.63;;;;;;;19.61;70.00;101216.69;4977246;28;20031;-89
2023/06/20 01:28:50;;;;;;;5.15;4.18;;;;;;;19.57;70.07;101207.38;4993135;28;20073;-89
2023/06/20 01:31:18;;;;;;;6.68;4.68;;;;;;;19.60;69.65;101207.97;4992911;28;20053;-88
2023/06/20 01:33:49;;;;;;;6.60;4.60;;;;;;;19.46;70.51;101171.41;4991922;28;20034;-90
2023/06/20 01:36:15;;;;;;;9.50;4.65;;;;;;;19.60;70.61;101200.09;4993144;28;20484;-91
2023/06/20 01:38:41;;;;;;;7.18;5.15;;;;;;;19.61;69.95;101201.75;4975773;28;20057;-89
2023/06/20 01:41:06;;;;;;;7.22;5.28;;;;;;;19.66;70.20;101191.72;4975427;28;20034;-90
2023/06/20 01:43:32;;;;;;;9.05;5.13;;;;;;;19.67;70.31;101201.31;4975158;28;20038;-91
2023/06/20 01:45:57;;;;;;;7.07;5.35;;;;;;;19.64;69.78;101191.03;4975207;28;20038;-90
2023/06/20 01:48:23;;;;;;;6.75;5.35;;;;;;;19.49;69.61;101174.66;4975491;28;20030;-91
2023/06/20 01:50:49;;;;;;;6.63;4.72;;;;;;;19.62;69.42;101189.47;4975411;28;20459;-89
2023/06/20 01:53:14;;;;;;;6.13;4.20;;;;;;;19.63;69.35;101202.47;4975252;28;20031;-89
2023/06/20 01:55:41;;;;;;;7.10;5.03;;;;;;;19.43;69.77;101179.53;4975716;28;20038;-88
2023/06/20 01:58:06;;;;;;;7.80;4.53;;;;;;;19.54;69.69;101191.81;4975661;28;20081;-90
2023/06/20 02:00:32;;;;;;;7.35;4.90;;;;;;;19.52;69.53;101191.94;4975002;28;20113;-91
2023/06/20 02:02:57;;;;;;;6.07;4.78;;;;;;;19.49;69.85;101200.91;4975292;28;20492;-89
2023/06/20 02:05:23;;;;;;;7.10;4.88;;;;;;;19.44;69.67;101207.44;4975254;28;20054;-88
2023/06/20 02:07:49;;;;;;;5.70;4.30;;;;;;;19.30;70.44;101199.81;4975442;28;20038;-89
2023/06/20 02:10:14;;;;;;;6.28;4.30;;;;;;;19.18;70.85;101180.59;4975124;28;20411;-89
2023/06/20 02:12:40;;;;;;;7.43;5.10;;;;;;;19.32;71.05;101203.13;4974992;28;20069;-89
2023/06/20 02:15:06;;;;;;;8.07;4.18;;;;;;;19.41;71.15;101189.31;4974561;28;20077;-91
2023/06/20 02:17:31;;;;;;;9.27;4.70;;;;;;;19.37;70.55;101183.47;4974987;28;20504;-89
2023/06/20 02:19:57;;;;;;;6.00;4.30;;;;;;;19.45;69.90;101193.38;4958581;28;20037;-90
2023/06/20 02:22:24;;;;;;;6.88;4.55;;;;;;;19.47;70.24;101208.06;4974659;28;20492;-90
2023/06/20 02:24:49;;;;;;;6.43;4.53;;;;;;;19.32;70.03;101182.16;4991421;28;20030;-89
2023/06/20 02:27:15;;;;;;;5.93;4.40;;;;;;;19.51;70.33;101211.28;4974495;28;20054;-89
2023/06/20 02:29:41;;;;;;;6.95;4.53;;;;;;;19.31;69.85;101189.19;4974177;28;20031;-89
2023/06/20 02:32:06;;;;;;;5.25;4.57;;;;;;;19.48;70.01;101208.91;4974765;28;20396;-90
2023/06/20 02:34:33;;;;;;;6.00;4.38;;;;;;;19.32;69.94;101200.53;4974558;28;20030;-89
2023/06/20 02:36:59;;;;;;;8.25;4.65;;;;;;;19.44;69.51;101217.94;4974609;28;20049;-89
2023/06/20 02:39:24;;;;;;;6.57;4.30;;;;;;;19.46;69.85;101213.41;4974772;28;20026;-88
2023/06/20 02:41:50;;;;;;;7.00;4.32;;;;;;;19.43;69.50;101211.84;4974468;28;20069;-89
2023/06/20 02:44:15;;;;;;;7.70;4.32;;;;;;;19.47;69.94;101201.97;5006858;28;20035;-88
2023/06/20 02:47:02;;;;;;;7.18;5.05;;;;;;;19.53;69.88;101211.16;4990829;28;20416;-90
2023/06/20 02:49:42;;;;;;;6.65;4.43;;;;;;;19.56;69.83;101222.28;4990521;28;20026;-88
2023/06/20 02:52:29;;;;;;;8.23;4.47;;;;;;;19.46;69.57;101210.78;4990604;28;20026;-88
2023/06/20 02:55:11;;;;;;;6.47;4.25;;;;;;;19.32;69.70;101182.16;4991556;28;20045;-91
2023/06/20 02:57:43;;;;;;;5.97;4.38;;;;;;;19.45;69.77;101211.72;4974629;28;20027;-89
2023/06/20 03:00:09;;;;;;;6.50;4.15;;;;;;;19.48;69.98;101214.16;4974482;28;20031;-90
2023/06/20 03:02:37;;;;;;;5.30;4.00;;;;;;;19.53;69.97;101237.41;4974922;28;20137;-90
2023/06/20 03:05:03;;;;;;;6.10;4.18;;;;;;;19.46;70.69;101237.00;4991116;28;20085;-91
2023/06/20 03:07:33;;;;;;;6.22;4.55;;;;;;;19.49;70.56;101236.81;4990995;28;20026;-89
2023/06/20 03:09:59;;;;;;;6.18;4.07;;;;;;;19.55;70.42;101244.19;4975487;28;20087;-91
2023/06/20 03:12:24;;;;;;;6.28;4.45;;;;;;;19.56;70.89;101248.50;4974482;28;20059;-90
2023/06/20 03:14:50;;;;;;;14.20;4.60;;;;;;;19.60;71.18;101244.72;4974531;28;20026;-88
2023/06/20 03:17:15;;;;;;;27.08;5.35;;;;;;;19.60;70.88;101236.84;4990900;28;20027;-90
2023/06/20 03:19:41;;;;;;;5.38;3.80;;;;;;;19.57;70.71;101239.72;4990833;28;20507;-90
2023/06/20 03:22:06;;;;;;;12.18;4.50;;;;;;;19.77;70.39;101254.75;4990697;28;20058;-90
2023/06/20 03:24:32;;;;;;;21.05;5.13;;;;;;;19.62;70.74;101231.47;4990653;28;20084;-90
2023/06/20 03:26:57;;;;;;;14.35;5.07;;;;;;;19.77;70.26;101257.38;4990305;28;20408;-92
2023/06/20 03:29:22;;;;;;;6.80;4.47;;;;;;;19.81;70.27;101257.13;4983039;28;20026;-89
2023/06/20 03:31:48;;;;;;;8.48;4.20;;;;;;;19.79;70.51;101259.03;4973267;28;20093;-90
2023/06/20 03:34:14;;;;;;;6.20;4.68;;;;;;;19.67;71.33;101250.34;4973421;28;20061;-87
2023/06/20 03:36:39;;;;;;;9.25;4.68;;;;;;;19.57;71.14;101234.47;4973312;28;20516;-86
2023/06/20 03:39:05;;;;;;;6.72;4.90;;;;;;;19.60;71.48;101236.84;4957525;28;20467;-88
2023/06/20 03:41:30;;;;;;;10.82;5.35;;;;;;;19.55;71.57;101240.72;4977127;28;20034;-91
2023/06/20 03:43:55;;;;;;;6.88;4.93;;;;;;;19.58;71.33;101240.53;4978819;28;20041;-90
2023/06/20 03:46:21;;;;;;;6.05;4.38;;;;;;;19.71;71.18;101242.09;4995737;28;20034;-90
2023/06/20 03:48:46;;;;;;;5.72;4.22;;;;;;;19.80;70.96;101234.47;4982741;28;20436;-92
2023/06/20 03:51:12;;;;;;;8.43;5.50;;;;;;;19.93;70.30;101245.66;4993854;28;20057;-88
2023/06/20 03:53:37;;;;;;;11.38;7.50;;;;;;;20.01;69.84;101232.78;4977491;28;20023;-89
2023/06/20 03:56:03;;;;;;;6.55;5.25;;;;;;;20.20;69.32;101243.50;4993457;28;20418;-90
2023/06/20 03:58:28;;;;;;;11.07;5.20;;;;;;;20.32;68.97;101241.66;4961273;28;20037;-89
2023/06/20 04:00:54;;;;;;;7.90;5.15;;;;;;;20.45;68.13;101231.03;4977197;28;20472;-89
2023/06/20 04:03:19;;;;;;;7.07;4.68;;;;;;;20.61;67.91;101241.97;4994717;28;20486;-91
2023/06/20 04:05:45;;;;;;;10.05;6.40;;;;;;;20.69;67.78;101254.50;4993568;28;20034;-90
2023/06/20 04:08:10;;;;;;;8.75;4.85;;;;;;;20.74;67.41;101257.59;4960629;28;20038;-91
2023/06/20 04:10:44;;;;;;;6.70;4.60;;;;;;;20.76;68.21;101255.69;4990714;28;20030;-89
2023/06/20 04:13:09;;;;;;;8.73;5.60;;;;;;;20.45;67.73;101210.00;4980048;28;20042;-89
2023/06/20 04:15:36;;;;;;;6.85;4.72;;;;;;;20.62;67.56;101249.75;4985046;28;20030;-90
2023/06/20 04:18:01;;;;;;;6.57;4.63;;;;;;;20.48;67.93;101251.84;4990762;28;20030;-89
2023/06/20 04:20:26;;;;;;;7.43;4.80;;;;;;;20.44;68.07;101259.09;4992727;28;20082;-90
2023/06/20 04:22:52;;;;;;;7.07;4.65;;;;;;;20.41;68.83;101258.50;4982431;28;20027;-91
2023/06/20 04:25:17;;;;;;;10.05;4.93;;;;;;;20.39;69.47;101252.53;4989885;28;20069;-89
2023/06/20 04:27:43;;;;;;;9.75;5.03;;;;;;;20.42;69.21;101260.16;4972118;28;20045;-90
2023/06/20 04:30:09;;;;;;;8.32;5.18;;;;;;;20.39;68.94;101263.06;4965419;28;20114;-88
2023/06/20 04:32:34;;;;;;;7.68;4.95;;;;;;;20.25;69.71;101246.56;4985411;28;20129;-90
2023/06/20 04:35:00;;;;;;;7.78;5.97;;;;;;;20.44;69.28;101260.91;4976789;28;20026;-91
2023/06/20 04:37:25;;;;;;;8.02;5.13;;;;;;;20.34;68.97;101266.84;4977271;28;20064;-88
2023/06/20 04:39:50;;;;;;;8.57;5.25;;;;;;;20.26;69.29;101271.91;4979543;28;20042;-89
2023/06/20 04:42:16;;;;;;;9.82;5.25;;;;;;;20.24;69.80;101276.44;4994055;28;20041;-90
2023/06/20 04:44:44;;;;;;;10.73;5.05;;;;;;;20.19;69.89;101280.41;4992603;28;20534;-87
2023/06/20 04:47:14;;;;;;;9.32;4.35;;;;;;;20.14;69.46;101291.25;4969071;28;20037;-92
2023/06/20 04:49:40;;;;;;;9.75;4.72;;;;;;;20.17;69.69;101285.78;5090485;23;20447;-88
2023/06/20 04:52:06;;;;;;;7.05;5.07;;;;;;;20.19;69.63;101285.66;4991791;28;20030;-93
2023/06/20 04:54:31;;;;;;;6.55;4.80;;;;;;;20.18;69.40;101287.44;5008378;28;20088;-92
2023/06/20 04:56:57;;;;;;;7.53;5.20;;;;;;;20.19;69.36;101285.66;4972895;28;20027;-90
2023/06/20 04:59:22;;;;;;;8.80;6.13;;;;;;;20.14;69.38;101280.75;4991054;28;20030;-88
2023/06/20 05:01:51;;;;;;;10.50;6.50;;;;;;;20.21;69.39;101289.81;4988169;28;20030;-91
2023/06/20 05:04:17;;;;;;;7.40;4.75;;;;;;;20.22;68.94;101288.84;4956927;28;20402;-88
2023/06/20 05:06:43;;;;;;;7.20;5.03;;;;;;;20.26;68.97;101299.97;5008372;28;20058;-91
2023/06/20 05:09:08;;;;;;;10.98;5.53;;;;;;;20.29;68.58;101300.56;4960831;28;20132;-88
2023/06/20 05:11:34;;;;;;;9.02;5.15;;;;;;;20.43;68.64;101314.44;4993300;28;20037;-91
2023/06/20 05:13:59;;;;;;;9.68;5.70;;;;;;;20.37;68.66;101310.47;4976603;28;20042;-91
2023/06/20 05:16:25;;;;;;;7.95;4.95;;;;;;;20.44;68.61;101310.84;4977103;28;20030;-88
2023/06/20 05:18:50;;;;;;;11.55;5.15;;;;;;;20.49;68.01;101319.22;4978721;28;20041;-92
2023/06/20 05:21:16;;;;;;;12.77;5.85;;;;;;;20.57;67.89;101314.19;4976435;28;20034;-90
2023/06/20 05:23:41;;;;;;;8.32;5.20;;;;;;;20.56;67.83;101317.75;4983857;28;20037;-90
2023/06/20 05:26:07;;;;;;;7.57;5.13;;;;;;;20.51;67.89;101298.88;4994221;28;20042;-88
2023/06/20 05:28:32;;;;;;;7.28;5.53;;;;;;;20.57;68.01;101308.91;4973872;28;20037;-89
2023/06/20 05:30:57;;;;;;;7.45;4.95;;;;;;;20.66;67.42;101313.44;4992396;28;20030;-88
2023/06/20 05:33:23;;;;;;;7.05;5.30;;;;;;;20.41;68.08;101272.47;4965849;28;20069;-87
2023/06/20 05:35:48;;;;;;;7.57;4.50;;;;;;;20.67;67.30;101312.47;4991576;28;20027;-89
2023/06/20 05:38:15;;;;;;;6.85;5.38;;;;;;;20.70;67.81;101308.75;4975273;28;20042;-90
2023/06/20 05:40:41;;;;;;;8.07;5.03;;;;;;;20.75;67.61;101319.75;4992655;28;20032;-89
2023/06/20 05:43:06;;;;;;;6.57;4.85;;;;;;;20.71;67.37;101310.44;4960867;28;20030;-85
2023/06/20 05:45:32;;;;;;;6.25;4.70;;;;;;;20.83;67.73;101310.25;4973003;28;20432;-85
2023/06/20 05:47:58;;;;;;;7.95;4.53;;;;;;;20.91;66.90;101315.72;4968755;28;20102;-90
2023/06/20 05:50:25;;;;;;;6.53;4.97;;;;;;;20.88;67.27;101317.78;4972070;28;20122;-87
2023/06/20 05:52:51;;;;;;;13.32;9.15;;;;;;;20.97;67.50;101311.78;4971990;28;20034;-88
2023/06/20 05:55:17;;;;;;;7.68;5.57;;;;;;;21.13;66.78;101322.69;4974059;28;20459;-88
2023/06/20 05:57:42;;;;;;;7.88;5.80;;;;;;;21.16;66.75;101321.63;5039635;23;20010;-92
2023/06/20 06:00:12;;;;;;;14.77;10.15;;;;;;;21.24;66.79;101327.09;5011701;28;20042;-85
2023/06/20 06:02:45;;;;;;;12.43;6.03;;;;;;;21.30;66.92;101329.25;4994554;28;20026;-90
2023/06/20 06:05:10;;;;;;;11.00;5.78;;;;;;;21.35;67.41;101337.59;4993920;28;20072;-87
2023/06/20 06:07:37;;;;;;;8.45;5.07;;;;;;;21.43;67.54;101334.31;4985967;28;20026;-89
2023/06/20 06:10:04;;;;;;;9.43;6.53;;;;;;;21.43;66.70;101332.53;4994754;28;20052;-89
2023/06/20 06:12:30;;;;;;;7.82;5.95;;;;;;;21.52;66.83;101343.25;4975921;28;20030;-87
2023/06/20 06:14:55;;;;;;;8.43;6.07;;;;;;;21.62;67.31;101349.41;4988358;28;20030;-88
2023/06/20 06:17:21;;;;;;;14.68;5.82;;;;;;;21.74;66.40;101353.66;5003356;28;20045;-89
2023/06/20 06:19:46;;;;;;;9.98;5.78;;;;;;;21.85;65.97;101356.22;4986296;28;20067;-91
2023/06/20 06:22:12;;;;;;;9.73;5.75;;;;;;;21.82;66.69;101350.34;4992620;28;20033;-88
2023/06/20 06:24:37;;;;;;;8.43;5.05;;;;;;;21.91;66.26;101350.41;5001387;28;20025;-89
2023/06/20 06:27:03;;;;;;;7.40;5.05;;;;;;;21.96;65.36;101353.50;5013536;28;20033;-89
2023/06/20 06:29:29;;;;;;;7.95;5.43;;;;;;;22.02;65.64;101363.53;5047633;23;20049;-92
2023/06/20 06:31:54;;;;;;;7.45;5.03;;;;;;;21.97;65.22;101347.25;4990232;28;20489;-87
2023/06/20 06:34:20;;;;;;;7.80;5.47;;;;;;;22.12;65.52;101353.03;5013941;28;20029;-92
2023/06/20 06:36:48;;;;;;;8.27;5.75;;;;;;;22.17;66.27;101344.75;5016959;28;20042;-92
2023/06/20 06:39:15;;;;;;;9.93;5.82;;;;;;;22.24;66.34;101345.88;4999795;28;20120;-93
2023/06/20 06:41:41;;;;;;;7.97;5.82;;;;;;;22.27;65.33;101340.34;4992120;28;20048;-90
2023/06/20 06:44:07;;;;;;;7.00;5.53;;;;;;;22.33;64.99;101345.09;5030103;28;20052;-90
2023/06/20 06:46:32;;;;;;;8.43;5.43;;;;;;;22.46;65.79;101334.31;4997138;28;20064;-89
2023/06/20 06:48:58;;;;;;;7.90;5.30;;;;;;;22.66;65.58;101340.44;5001211;28;20107;-92
2023/06/20 06:51:23;;;;;;;7.72;4.88;;;;;;;22.85;64.92;101346.63;4999068;28;20037;-94
2023/06/20 06:53:49;;;;;;;8.55;5.38;;;;;;;22.85;64.05;101335.25;5035113;28;20037;-93
2023/06/20 06:56:14;;;;;;;7.35;5.30;;;;;;;22.85;64.38;101345.78;5019824;28;20509;-87
2023/06/20 06:58:39;;;;;;;7.13;5.03;;;;;;;22.90;64.20;101344.38;5027910;28;20041;-88
2023/06/20 07:01:05;;;;;;;8.23;5.72;;;;;;;23.05;64.10;101336.91;5030303;28;20030;-89
2023/06/20 07:03:32;;;;;;;8.85;5.45;;;;;;;23.13;64.55;101331.78;5031798;28;20033;-89
2023/06/20 07:05:58;;;;;;;8.00;5.50;;;;;;;23.20;64.78;101339.97;5003153;28;20422;-94
2023/06/20 07:08:24;;;;;;;7.65;5.75;;;;;;;23.22;65.59;101326.66;5004286;28;20025;-91
2023/06/20 07:10:51;;;;;;;6.78;5.53;;;;;;;23.46;63.56;101340.22;5017107;28;20618;-92
2023/06/20 07:13:17;;;;;;;9.00;5.10;;;;;;;23.58;62.50;101341.72;4989281;28;20091;-92
2023/06/20 07:15:42;;;;;;;9.80;5.07;;;;;;;23.66;62.16;101328.69;5030563;28;20034;-94
2023/06/20 07:18:08;;;;;;;7.00;5.35;;;;;;;23.76;61.96;101328.66;5021845;28;20034;-92
2023/06/20 07:20:34;;;;;;;8.30;5.55;;;;;;;23.84;61.60;101335.88;4983025;28;20041;-91
2023/06/20 07:22:59;;;;;;;8.70;6.05;;;;;;;23.88;60.83;101331.94;5014548;28;20025;-92
2023/06/20 07:25:25;;;;;;;7.55;5.50;;;;;;;23.96;61.04;101329.41;4998138;28;20457;-93
2023/06/20 07:27:50;;;;;;;7.03;5.47;;;;;;;24.00;61.15;101336.09;5002535;28;20061;-92
2023/06/20 07:30:16;;;;;;;7.38;5.40;;;;;;;24.01;60.99;101335.94;5001376;28;20049;-92
2023/06/20 07:32:41;;;;;;;7.57;5.50;;;;;;;24.13;61.07;101335.75;5008212;28;20072;-92
2023/06/20 07:35:07;;;;;;;7.75;5.80;;;;;;;24.09;61.06;101322.00;5007888;28;20046;-90
2023/06/20 07:37:33;;;;;;;9.50;5.88;;;;;;;24.29;61.16;101344.75;5004743;28;20081;-94
2023/06/20 07:39:59;;;;;;;7.03;5.65;;;;;;;24.23;61.71;101323.31;4984336;28;20479;-92
2023/06/20 07:42:24;;;;;;;15.40;6.15;;;;;;;24.38;62.92;101331.63;4996557;28;20038;-90
2023/06/20 07:44:50;;;;;;;8.57;5.78;;;;;;;24.46;59.95;101335.19;4994702;28;20060;-92
2023/06/20 07:47:15;;;;;;;12.93;6.18;;;;;;;24.50;60.35;101338.41;5006475;28;20034;-91
2023/06/20 07:49:41;;;;;;;8.25;6.15;;;;;;;24.68;61.84;101333.09;4994070;28;20029;-91
2023/06/20 07:52:07;;;;;;;11.85;6.32;;;;;;;24.85;60.77;101333.13;5033163;28;20040;-90
2023/06/20 07:54:33;;;;;;;9.48;6.88;;;;;;;25.05;59.43;101336.50;5028474;28;20055;-92
2023/06/20 07:56:59;;;;;;;15.55;7.13;;;;;;;25.18;58.96;101325.53;5015083;28;20816;-95
2023/06/20 07:59:25;;;;;;;8.65;6.35;;;;;;;25.17;57.43;101307.97;5032468;28;20042;-92
2023/06/20 08:01:51;;;;;;;9.23;6.28;;;;;;;25.49;57.48;101328.56;5012235;28;20111;-92
2023/06/20 08:04:17;;;;;;;11.05;6.40;;;;;;;25.63;56.96;101325.34;5033867;28;20740;-92
2023/06/20 08:06:43;;;;;;;10.13;6.45;;;;;;;25.89;55.83;101340.44;5015498;28;20121;-90
2023/06/20 08:09:08;;;;;;;11.60;6.60;;;;;;;26.09;55.65;101339.22;5031455;28;20133;-90
2023/06/20 08:11:34;;;;;;;8.05;6.55;;;;;;;26.21;55.66;101340.59;5015012;28;20029;-92
2023/06/20 08:14:00;;;;;;;9.68;6.63;;;;;;;26.21;55.60;101318.56;5032762;28;20091;-91
2023/06/20 08:16:25;;;;;;;7.80;5.88;;;;;;;26.45;54.57;101342.56;5022631;28;20471;-90
2023/06/20 08:18:51;;;;;;;9.95;7.18;;;;;;;26.58;54.82;101332.31;5004609;28;20018;-90
2023/06/20 08:21:16;;;;;;;10.00;5.95;;;;;;;26.66;55.10;101312.91;4993609;28;20034;-90
2023/06/20 08:23:42;;;;;;;8.50;6.40;;;;;;;26.97;53.99;101342.31;5015626;28;20379;-92
2023/06/20 08:26:07;;;;;;;8.38;6.50;;;;;;;27.02;54.17;101329.41;4998972;28;20033;-95
2023/06/20 08:28:33;;;;;;;7.53;5.78;;;;;;;27.23;52.90;101333.38;5018720;28;20026;-94
2023/06/20 08:30:58;;;;;;;9.07;6.25;;;;;;;27.25;52.19;101334.06;4997625;28;20049;-90
2023/06/20 08:33:23;;;;;;;11.00;6.13;;;;;;;27.46;52.12;101337.03;5001671;28;20045;-90
2023/06/20 08:35:50;;;;;;;11.82;5.95;;;;;;;27.56;51.86;101305.78;5014886;28;20038;-91
2023/06/20 08:38:16;;;;;;;10.93;6.30;;;;;;;27.67;51.91;101318.75;5000502;28;20021;-90
2023/06/20 08:40:42;;;;;;;7.25;5.72;;;;;;;27.54;49.21;101297.16;4999182;28;20036;-88
2023/06/20 08:43:12;;;;;;;8.10;5.47;;;;;;;27.77;48.93;101315.06;5035488;28;20544;-91
2023/06/20 08:45:38;;;;;;;7.93;6.07;;;;;;;28.05;47.93;101326.94;5008704;28;20058;-93
2023/06/20 08:48:04;;;;;;;10.02;6.10;;;;;;;28.10;48.33;101324.59;4990697;28;20036;-91
2023/06/20 08:50:29;;;;;;;8.75;5.72;;;;;;;28.20;48.35;101335.84;5021016;28;20018;-93
2023/06/20 08:53:01;;;;;;;11.63;6.00;;;;;;;28.23;48.78;101327.53;5015593;28;20040;-89
2023/06/20 08:55:28;;;;;;;9.27;6.47;;;;;;;28.36;48.40;101320.84;5015044;28;20032;-87
2023/06/20 08:57:53;;;;;;;7.85;5.57;;;;;;;28.51;48.40;101306.59;5014169;28;20048;-91
2023/06/20 09:00:22;;;;;;;10.02;5.75;;;;;;;28.80;48.42;101321.91;5013871;28;20034;-89
2023/06/20 09:02:48;;;;;;;8.07;6.07;;;;;;;28.95;45.75;101319.34;5023091;28;20864;-90
2023/06/20 09:05:14;;;;;;;9.07;5.90;;;;;;;29.14;44.72;101318.00;5020449;28;20028;-90
2023/06/20 09:07:41;;;;;;;6.85;5.43;;;;;;;29.33;45.19;101319.34;5015343;28;20037;-93
2023/06/20 09:10:07;;;;;;;7.32;5.65;;;;;;;29.59;43.02;101321.59;5033880;28;20034;-88
2023/06/20 09:12:56;;;;;;;7.00;5.05;;;;;;;29.71;43.78;101317.50;5014382;28;20054;-88
2023/06/20 09:15:23;;;;;;;9.27;5.55;;;;;;;29.87;42.21;101313.81;5030950;28;20026;-88
2023/06/20 09:17:53;;;;;;;7.45;5.28;;;;;;;29.97;42.83;101325.00;5032157;28;20471;-88
2023/06/20 09:20:18;;;;;;;7.13;5.18;;;;;;;29.97;42.29;101320.50;5032618;28;20029;-92
2023/06/20 09:22:44;;;;;;;7.72;5.60;;;;;;;29.80;41.51;101312.91;5010730;28;20180;-90
2023/06/20 09:25:10;;;;;;;7.10;5.65;;;;;;;29.88;41.55;101326.94;5006772;28;20033;-90
2023/06/20 09:27:40;;;;;;;7.53;5.60;;;;;;;30.01;43.35;101328.16;5031022;28;20037;-93
2023/06/20 09:30:06;;;;;;;7.32;5.55;;;;;;;30.11;43.63;101321.56;5030187;28;20053;-92
2023/06/20 09:32:36;;;;;;;6.97;5.47;;;;;;;30.37;44.45;101329.03;4998026;28;20483;-90
2023/06/20 09:35:03;;;;;;;7.25;4.97;;;;;;;30.50;42.32;101326.53;4996937;28;20180;-91
2023/06/20 09:37:38;;;;;;;11.38;8.27;;;;;;;30.57;43.48;101331.91;4996721;28;20491;-91
2023/06/20 09:40:17;;;;;;;6.60;5.45;;;;;;;30.62;42.38;101328.69;5002385;28;20029;-93
2023/06/20 09:42:43;;;;;;;7.28;5.40;;;;;;;30.60;42.58;101312.88;5012773;28;20033;-91
2023/06/20 09:45:10;;;;;;;6.28;5.28;;;;;;;30.82;40.78;101308.38;5007149;28;20475;-89
2023/06/20 09:47:37;;;;;;;6.40;5.30;;;;;;;30.90;40.71;101304.75;5031109;28;20380;-93
2023/06/20 09:50:05;;;;;;;7.28;5.70;;;;;;;31.12;41.43;101317.91;5016127;28;20033;-92
2023/06/20 09:52:42;;;;;;;8.27;5.78;;;;;;;31.18;40.59;101318.97;5032319;28;20057;-91
2023/06/20 09:55:14;;;;;;;6.85;5.47;;;;;;;31.04;40.77;101319.88;5006350;28;20034;-92
2023/06/20 09:57:42;;;;;;;9.07;5.85;;;;;;;30.89;41.02;101319.97;4995802;28;20179;-85
2023/06/20 10:00:16;;;;;;;8.00;5.57;;;;;;;30.83;41.54;101326.88;5001307;28;20132;-92
2023/06/20 10:02:47;;;;;;;6.53;5.15;;;;;;;31.00;39.79;101306.09;5009733;28;20058;-88
2023/06/20 10:05:13;;;;;;;7.15;5.18;;;;;;;30.99;40.17;101304.44;5020866;28;20029;-88
2023/06/20 10:07:39;;;;;;;7.20;5.43;;;;;;;31.17;41.08;101321.81;5015964;28;20032;-92
2023/06/20 10:10:05;;;;;;;7.57;5.35;;;;;;;31.29;39.89;101314.97;5014373;28;20033;-91
2023/06/20 10:12:31;;;;;;;12.32;8.90;;;;;;;31.36;39.12;101308.63;5034058;28;20506;-92
2023/06/20 10:14:56;;;;;;;7.43;5.70;;;;;;;31.31;38.18;101286.19;5035403;28;20060;-92
2023/06/20 10:17:32;;;;;;;6.40;5.00;;;;;;;31.64;38.30;101313.16;5015488;28;20044;-90
2023/06/20 10:20:00;;;;;;;5.82;5.22;;;;;;;31.79;38.96;101310.41;5017293;28;20029;-93
2023/06/20 10:22:41;;;;;;;5.82;4.93;;;;;;;31.77;37.50;101310.59;5000334;28;20039;-90
2023/06/20 10:25:14;;;;;;;7.88;5.55;;;;;;;31.88;38.36;101314.56;5013883;28;20136;-91
2023/06/20 10:27:58;;;;;;;9.45;5.38;;;;;;;31.77;37.51;101315.13;5016081;28;20057;-87
2023/06/20 10:30:57;;;;;;;10.85;6.55;;;;;;;31.83;36.68;101306.28;5030494;28;20042;-88
2023/06/20 10:33:30;;;;;;;6.20;5.20;;;;;;;31.72;37.06;101298.78;5006460;28;20467;-91
2023/06/20 10:35:59;;;;;;;6.47;5.07;;;;;;;31.92;37.21;101311.28;4996935;28;20037;-91
2023/06/20 10:38:25;;;;;;;7.32;5.60;;;;;;;31.93;36.54;101301.41;5008125;28;20037;-92
2023/06/20 10:41:09;;;;;;;7.40;4.88;;;;;;;32.00;37.19;101304.13;4989119;28;20089;-91
2023/06/20 10:43:51;;;;;;;6.15;5.45;;;;;;;31.99;37.01;101311.31;5009830;28;20037;-92
2023/06/20 10:46:17;;;;;;;6.13;5.35;;;;;;;31.93;37.28;101293.38;5007268;28;20025;-90
2023/06/20 10:48:43;;;;;;;5.38;4.85;;;;;;;32.18;36.01;101282.97;5029426;28;20022;-92
2023/06/20 10:51:09;;;;;;;6.35;5.05;;;;;;;32.38;35.41;101299.13;5017084;28;20029;-92
2023/06/20 10:53:35;;;;;;;10.52;5.80;;;;;;;32.57;35.65;101303.69;5014013;28;20033;-93
2023/06/20 10:56:00;;;;;;;8.95;7.25;;;;;;;32.51;33.92;101277.72;5019900;28;20076;-92
2023/06/20 10:58:26;;;;;;;6.45;5.22;;;;;;;32.66;34.84;101296.31;5013042;28;20022;-91
2023/06/20 11:00:52;;;;;;;5.43;4.85;;;;;;;32.63;34.04;101297.50;5016015;28;20037;-89
2023/06/20 11:03:17;;;;;;;8.50;5.25;;;;;;;32.73;34.88;101295.25;5000273;28;20025;-94
2023/06/20 11:05:48;;;;;;;6.85;5.30;;;;;;;32.90;35.35;101287.69;4997694;28;20025;-92
2023/06/20 11:08:21;;;;;;;6.32;4.70;;;;;;;33.04;35.09;101288.53;5019119;28;20159;-90
2023/06/20 11:10:47;;;;;;;6.10;4.40;;;;;;;32.77;32.76;101283.13;5012709;28;20022;-88
2023/06/20 11:13:12;;;;;;;7.07;5.22;;;;;;;32.94;32.27;101288.94;5030629;28;20398;-92
2023/06/20 11:15:38;;;;;;;5.30;4.50;;;;;;;33.07;31.64;101288.09;5029267;28;20491;-89
2023/06/20 11:18:04;;;;;;;7.32;6.13;;;;;;;33.14;32.31;101291.63;5016122;28;20041;-91
2023/06/20 11:20:35;;;;;;;7.30;5.78;;;;;;;33.03;34.14;101286.84;5016264;28;20060;-93
2023/06/20 11:23:02;;;;;;;4.60;3.70;;;;;;;32.85;29.75;101273.28;5035441;23;20069;-90
2023/06/20 11:25:29;;;;;;;7.40;3.90;;;;;;;32.80;29.67;101287.25;5045220;28;20442;-87